createdAt,value
2023-03-22T00:00:30.234Z,8.90
2023-03-22T00:01:33.138Z,8.96
2023-03-22T00:02:35.611Z,9.04
2023-03-22T00:03:37.844Z,9.05
2023-03-22T00:04:39.964Z,8.98
2023-03-22T00:05:42.346Z,8.97
2023-03-22T00:06:44.443Z,8.99
2023-03-22T00:07:50.137Z,9.02
2023-03-22T00:08:53.292Z,9.01
2023-03-22T00:09:55.609Z,9.00
2023-03-22T00:10:57.758Z,9.00
2023-03-22T00:11:59.988Z,9.13
2023-03-22T00:13:02.465Z,9.15
2023-03-22T00:14:04.832Z,9.11
2023-03-22T00:15:07.667Z,9.07
2023-03-22T00:16:11.044Z,9.02
2023-03-22T00:17:13.193Z,8.95
2023-03-22T00:18:16.435Z,8.87
2023-03-22T00:19:18.590Z,8.78
2023-03-22T00:20:20.949Z,8.68
2023-03-22T00:21:23.299Z,8.63
2023-03-22T00:22:26.166Z,8.59
2023-03-22T00:23:29.046Z,8.53
2023-03-22T00:24:31.177Z,8.48
2023-03-22T00:25:33.360Z,8.45
2023-03-22T00:26:35.532Z,8.46
2023-03-22T00:27:37.722Z,8.42
2023-03-22T00:28:39.972Z,8.45
2023-03-22T00:29:42.305Z,8.39
2023-03-22T00:30:52.775Z,8.35
2023-03-22T00:31:56.028Z,8.33
2023-03-22T00:32:58.191Z,8.34
2023-03-22T00:34:00.540Z,8.40
2023-03-22T00:35:03.713Z,8.48
2023-03-22T00:36:11.241Z,8.55
2023-03-22T00:37:13.503Z,8.56
2023-03-22T00:38:15.658Z,8.58
2023-03-22T00:39:17.842Z,8.65
2023-03-22T00:40:20.337Z,8.64
2023-03-22T00:41:23.986Z,8.63
2023-03-22T00:42:26.462Z,8.66
2023-03-22T00:43:28.559Z,8.68
2023-03-22T00:44:30.673Z,8.63
2023-03-22T00:45:32.876Z,8.60
2023-03-22T00:46:35.066Z,8.58
2023-03-22T00:47:37.903Z,8.65
2023-03-22T00:48:40.570Z,8.68
2023-03-22T00:49:42.690Z,8.70
2023-03-22T00:50:44.788Z,8.69
2023-03-22T00:51:46.929Z,8.73
2023-03-22T00:52:49.123Z,8.79
2023-03-22T00:53:52.316Z,8.81
2023-03-22T00:54:55.050Z,8.80
2023-03-22T00:55:57.349Z,8.76
2023-03-22T00:56:59.502Z,8.72
2023-03-22T00:58:01.783Z,8.61
2023-03-22T00:59:04.675Z,8.54
2023-03-22T01:00:11.118Z,8.51
2023-03-22T01:01:14.197Z,8.47
2023-03-22T01:02:17.474Z,8.43
2023-03-22T01:03:21.961Z,8.33
2023-03-22T01:04:26.213Z,8.32
2023-03-22T01:05:28.452Z,8.30
2023-03-22T01:06:31.237Z,8.28
2023-03-22T01:07:33.419Z,8.24
2023-03-22T01:08:38.711Z,8.23
2023-03-22T01:09:40.849Z,8.19
2023-03-22T01:10:44.143Z,8.15
2023-03-22T01:11:46.283Z,8.10
2023-03-22T01:12:48.501Z,8.11
2023-03-22T01:13:50.605Z,8.11
2023-03-22T01:14:52.702Z,8.10
2023-03-22T01:15:54.939Z,8.05
2023-03-22T01:16:57.731Z,7.98
2023-03-22T01:18:00.464Z,7.91
2023-03-22T01:19:03.603Z,7.96
2023-03-22T01:20:07.164Z,7.91
2023-03-22T01:21:09.427Z,7.93
2023-03-22T01:22:11.684Z,7.91
2023-03-22T01:23:13.885Z,7.96
2023-03-22T01:24:16.811Z,7.90
2023-03-22T01:25:18.995Z,7.87
2023-03-22T01:26:21.165Z,7.89
2023-03-22T01:27:23.515Z,7.89
2023-03-22T01:28:27.198Z,7.83
2023-03-22T01:29:31.301Z,7.84
2023-03-22T01:30:33.500Z,7.73
2023-03-22T01:31:35.664Z,7.64
2023-03-22T01:32:38.500Z,7.61
2023-03-22T01:33:40.801Z,7.59
2023-03-22T01:34:42.945Z,7.60
2023-03-22T01:35:45.280Z,7.60
2023-03-22T01:36:47.491Z,7.59
2023-03-22T01:37:49.691Z,7.63
2023-03-22T01:38:51.820Z,7.60
2023-03-22T01:39:55.115Z,7.55
2023-03-22T01:40:57.491Z,7.51
2023-03-22T01:41:59.597Z,7.48
2023-03-22T01:43:01.761Z,7.48
2023-03-22T01:44:15.393Z,7.48
2023-03-22T01:45:38.331Z,7.51
2023-03-22T01:46:45.507Z,7.49
2023-03-22T01:48:10.005Z,7.44
2023-03-22T01:49:31.487Z,7.35
2023-03-22T01:50:33.729Z,7.30
2023-03-22T01:51:36.168Z,7.33
2023-03-22T01:52:38.959Z,7.31
2023-03-22T01:53:49.302Z,7.32
2023-03-22T01:54:52.820Z,7.30
2023-03-22T01:55:55.751Z,7.36
2023-03-22T01:56:57.975Z,7.41
2023-03-22T01:58:01.510Z,7.46
2023-03-22T01:59:05.586Z,7.48
2023-03-22T02:00:15.671Z,7.53
2023-03-22T02:01:18.483Z,7.56
2023-03-22T02:02:22.218Z,7.58
2023-03-22T02:03:45.019Z,7.53
2023-03-22T02:04:50.599Z,7.48
2023-03-22T02:05:52.872Z,7.50
2023-03-22T02:06:55.685Z,7.49
2023-03-22T02:07:58.017Z,7.50
2023-03-22T02:09:00.149Z,7.45
2023-03-22T02:10:02.291Z,7.39
2023-03-22T02:11:04.884Z,7.32
2023-03-22T02:12:40.782Z,7.28
2023-03-22T02:13:48.702Z,7.30
2023-03-22T02:15:03.951Z,7.27
2023-03-22T02:16:14.321Z,7.22
2023-03-22T02:17:26.231Z,7.24
2023-03-22T02:18:39.642Z,7.24
2023-03-22T02:19:52.772Z,7.24
2023-03-22T02:21:07.743Z,7.25
2023-03-22T02:22:32.056Z,7.21
2023-03-22T02:24:15.129Z,7.10
2023-03-22T02:25:31.206Z,7.04
2023-03-22T02:26:54.504Z,6.96
2023-03-22T02:28:17.943Z,6.88
2023-03-22T02:29:45.247Z,6.86
2023-03-22T02:31:02.615Z,6.84
2023-03-22T02:32:07.326Z,6.92
2023-03-22T02:33:16.506Z,6.97
2023-03-22T02:34:34.294Z,6.93
2023-03-22T02:35:46.370Z,6.86
2023-03-22T02:37:06.848Z,6.79
2023-03-22T02:38:29.754Z,6.71
2023-03-22T02:39:39.027Z,6.69
2023-03-22T02:40:53.175Z,6.75
2023-03-22T02:42:09.260Z,6.80
2023-03-22T02:43:34.199Z,6.77
2023-03-22T02:44:43.568Z,6.74
2023-03-22T02:45:51.268Z,6.72
2023-03-22T02:47:03.243Z,6.77
2023-03-22T02:48:21.571Z,6.81
2023-03-22T02:49:38.072Z,6.78
2023-03-22T02:50:45.302Z,6.82
2023-03-22T02:51:56.579Z,6.88
2023-03-22T02:53:02.925Z,6.92
2023-03-22T02:54:10.123Z,6.96
2023-03-22T02:55:26.434Z,6.99
2023-03-22T02:56:39.341Z,6.93
2023-03-22T02:58:11.237Z,6.89
2023-03-22T02:59:14.177Z,6.85
2023-03-22T03:00:17.933Z,6.87
2023-03-22T03:01:33.056Z,6.95
2023-03-22T03:02:35.742Z,7.03
2023-03-22T03:03:38.044Z,7.09
2023-03-22T03:04:43.752Z,7.07
2023-03-22T03:05:50.984Z,7.07
2023-03-22T03:06:56.642Z,7.06
2023-03-22T03:08:01.318Z,7.15
2023-03-22T03:09:05.289Z,7.18
2023-03-22T03:10:08.339Z,7.25
2023-03-22T03:11:10.496Z,7.31
2023-03-22T03:12:21.260Z,7.24
2023-03-22T03:13:23.426Z,7.18
2023-03-22T03:14:26.641Z,7.18
2023-03-22T03:15:28.815Z,7.24
2023-03-22T03:16:34.809Z,7.32
2023-03-22T03:18:06.364Z,7.34
2023-03-22T03:19:25.439Z,7.34
2023-03-22T03:20:34.441Z,7.40
2023-03-22T03:21:38.780Z,7.47
2023-03-22T03:23:03.474Z,7.57
2023-03-22T03:24:28.347Z,7.51
2023-03-22T03:25:59.457Z,7.44
2023-03-22T03:27:17.207Z,7.36
2023-03-22T03:28:43.336Z,7.32
2023-03-22T03:30:11.657Z,7.32
2023-03-22T03:31:36.857Z,7.34
2023-03-22T03:32:47.495Z,7.34
2023-03-22T03:34:13.869Z,7.37
2023-03-22T03:35:28.238Z,7.50
2023-03-22T03:36:33.549Z,7.51
2023-03-22T03:37:39.795Z,7.54
2023-03-22T03:38:46.619Z,7.54
2023-03-22T03:39:55.412Z,7.58
2023-03-22T03:41:01.295Z,7.56
2023-03-22T03:42:03.792Z,7.55
2023-03-22T03:43:06.473Z,7.54
2023-03-22T03:44:09.178Z,7.55
2023-03-22T03:45:11.539Z,7.54
2023-03-22T03:46:14.668Z,7.56
2023-03-22T03:47:17.129Z,7.59
2023-03-22T03:48:21.882Z,7.59
2023-03-22T03:49:24.027Z,7.60
2023-03-22T03:50:26.959Z,7.56
2023-03-22T03:51:29.108Z,7.47
2023-03-22T03:52:31.574Z,7.46
2023-03-22T03:53:33.727Z,7.56
2023-03-22T03:54:35.958Z,7.58
2023-03-22T03:55:38.160Z,7.54
2023-03-22T03:56:40.270Z,7.52
2023-03-22T03:57:42.402Z,7.42
2023-03-22T03:58:44.512Z,7.37
2023-03-22T03:59:46.638Z,7.40
2023-03-22T04:00:48.930Z,7.37
2023-03-22T04:01:52.463Z,7.35
2023-03-22T04:02:54.724Z,7.34
2023-03-22T04:03:56.895Z,7.35
2023-03-22T04:04:59.097Z,7.35
2023-03-22T04:06:01.214Z,7.33
2023-03-22T04:07:05.397Z,7.26
2023-03-22T04:08:07.868Z,7.30
2023-03-22T04:09:10.166Z,7.30
2023-03-22T04:10:12.407Z,7.30
2023-03-22T04:11:14.548Z,7.32
2023-03-22T04:12:16.727Z,7.40
2023-03-22T04:13:21.617Z,7.39
2023-03-22T04:14:24.491Z,7.38
2023-03-22T04:15:26.634Z,7.43
2023-03-22T04:16:28.849Z,7.36
2023-03-22T04:17:32.134Z,7.27
2023-03-22T04:18:34.256Z,7.14
2023-03-22T04:19:36.638Z,7.04
2023-03-22T04:20:41.781Z,6.97
2023-03-22T04:21:44.122Z,6.98
2023-03-22T04:22:46.989Z,6.98
2023-03-22T04:23:49.095Z,6.97
2023-03-22T04:24:51.240Z,7.03
2023-03-22T04:25:53.776Z,6.98
2023-03-22T04:26:55.950Z,6.91
2023-03-22T04:28:00.569Z,6.83
2023-03-22T04:29:03.140Z,6.80
2023-03-22T04:30:11.221Z,6.79
2023-03-22T04:31:13.424Z,6.80
2023-03-22T04:32:18.939Z,6.91
2023-03-22T04:33:23.055Z,6.90
2023-03-22T04:34:26.456Z,6.95
2023-03-22T04:35:28.587Z,6.96
2023-03-22T04:36:31.290Z,6.98
2023-03-22T04:37:33.719Z,7.01
2023-03-22T04:38:39.489Z,7.02
2023-03-22T04:39:42.541Z,7.05
2023-03-22T04:40:46.826Z,7.10
2023-03-22T04:41:49.008Z,7.14
2023-03-22T04:42:51.417Z,7.11
2023-03-22T04:43:53.508Z,7.12
2023-03-22T04:44:55.622Z,7.09
2023-03-22T04:45:58.348Z,7.01
2023-03-22T04:47:00.562Z,6.92
2023-03-22T04:48:02.839Z,6.83
2023-03-22T04:49:05.383Z,6.80
2023-03-22T04:50:08.408Z,6.79
2023-03-22T04:51:11.687Z,6.80
2023-03-22T04:52:13.840Z,6.82
2023-03-22T04:53:15.926Z,6.87
2023-03-22T04:54:18.075Z,6.88
2023-03-22T04:55:20.420Z,6.82
2023-03-22T04:56:22.607Z,6.82
2023-03-22T04:57:24.857Z,6.76
2023-03-22T04:58:27.266Z,6.64
2023-03-22T04:59:29.420Z,6.61
2023-03-22T05:00:31.547Z,6.72
2023-03-22T05:01:35.331Z,6.69
2023-03-22T05:02:41.434Z,6.66
2023-03-22T05:03:47.952Z,6.72
2023-03-22T05:04:50.364Z,6.78
2023-03-22T05:05:58.336Z,6.80
2023-03-22T05:07:00.469Z,6.82
2023-03-22T05:08:02.641Z,6.86
2023-03-22T05:09:05.981Z,6.86
2023-03-22T05:10:08.615Z,6.86
2023-03-22T05:11:14.026Z,6.86
2023-03-22T05:12:16.179Z,6.86
2023-03-22T05:13:22.298Z,6.80
2023-03-22T05:14:24.456Z,6.78
2023-03-22T05:15:26.606Z,6.81
2023-03-22T05:16:29.425Z,6.82
2023-03-22T05:17:31.584Z,6.89
2023-03-22T05:18:33.741Z,6.96
2023-03-22T05:19:36.475Z,7.00
2023-03-22T05:20:39.038Z,7.03
2023-03-22T05:21:42.171Z,7.07
2023-03-22T05:22:45.470Z,7.10
2023-03-22T05:23:51.473Z,7.19
2023-03-22T05:24:53.737Z,7.29
2023-03-22T05:25:58.268Z,7.26
2023-03-22T05:27:03.862Z,7.24
2023-03-22T05:28:06.940Z,7.27
2023-03-22T05:29:13.569Z,7.29
2023-03-22T05:30:16.093Z,7.38
2023-03-22T05:31:18.373Z,7.41
2023-03-22T05:32:25.581Z,7.44
2023-03-22T05:33:29.658Z,7.48
2023-03-22T05:34:36.155Z,7.57
2023-03-22T05:35:40.083Z,7.59
2023-03-22T05:36:42.253Z,7.73
2023-03-22T05:37:44.732Z,7.82
2023-03-22T05:38:47.166Z,7.91
2023-03-22T05:39:49.310Z,8.04
2023-03-22T05:40:51.691Z,8.13
2023-03-22T05:41:53.825Z,8.15
2023-03-22T05:42:56.042Z,8.20
2023-03-22T05:43:58.196Z,8.28
2023-03-22T05:45:00.412Z,8.37
2023-03-22T05:46:06.470Z,8.43
2023-03-22T05:47:08.621Z,8.44
2023-03-22T05:48:10.804Z,8.44
2023-03-22T05:49:12.942Z,8.46
2023-03-22T05:50:17.456Z,8.50
2023-03-22T05:51:19.839Z,8.43
2023-03-22T05:52:21.933Z,8.44
2023-03-22T05:53:24.029Z,8.47
2023-03-22T05:54:26.578Z,8.55
2023-03-22T05:55:31.947Z,8.61
2023-03-22T05:56:35.234Z,8.61
2023-03-22T05:57:37.320Z,8.80
2023-03-22T05:58:41.216Z,8.94
2023-03-22T05:59:43.352Z,8.99
2023-03-22T06:00:46.593Z,9.05
2023-03-22T06:01:48.708Z,9.15
2023-03-22T06:02:52.980Z,9.16
2023-03-22T06:03:55.134Z,9.04
2023-03-22T06:04:57.254Z,9.00
2023-03-22T06:05:59.428Z,9.15
2023-03-22T06:07:01.530Z,9.23
2023-03-22T06:08:04.100Z,9.34
2023-03-22T06:09:16.398Z,9.39
2023-03-22T06:10:19.461Z,9.38
2023-03-22T06:11:22.718Z,9.36
2023-03-22T06:12:27.230Z,9.36
2023-03-22T06:13:30.556Z,9.37
2023-03-22T06:14:32.644Z,9.32
2023-03-22T06:15:34.792Z,9.30
2023-03-22T06:16:36.959Z,9.30
2023-03-22T06:17:39.151Z,9.40
2023-03-22T06:18:41.278Z,9.60
2023-03-22T06:19:43.558Z,9.75
2023-03-22T06:20:45.862Z,9.71
2023-03-22T06:21:48.172Z,9.67
2023-03-22T06:22:50.398Z,10.03
2023-03-22T06:23:52.559Z,10.08
2023-03-22T06:24:54.655Z,10.07
2023-03-22T06:25:56.746Z,10.23
2023-03-22T06:26:58.941Z,10.42
2023-03-22T06:28:01.143Z,10.46
2023-03-22T06:29:03.704Z,10.56
2023-03-22T06:30:06.734Z,10.65
2023-03-22T06:31:10.513Z,10.65
2023-03-22T06:32:12.678Z,10.64
2023-03-22T06:33:14.789Z,10.77
2023-03-22T06:34:16.883Z,10.80
2023-03-22T06:35:19.002Z,10.89
2023-03-22T06:36:21.186Z,11.09
2023-03-22T06:37:24.512Z,11.07
2023-03-22T06:38:26.643Z,11.13
2023-03-22T06:39:28.766Z,11.21
2023-03-22T06:40:31.002Z,11.33
2023-03-22T06:41:33.113Z,11.46
2023-03-22T06:42:35.527Z,11.50
2023-03-22T06:43:37.693Z,11.40
2023-03-22T06:44:43.971Z,11.66
2023-03-22T06:45:47.288Z,11.88
2023-03-22T06:46:49.441Z,11.85
2023-03-22T06:47:51.701Z,11.93
2023-03-22T06:48:53.832Z,12.16
2023-03-22T06:49:55.986Z,12.29
2023-03-22T06:50:59.593Z,12.43
2023-03-22T06:52:01.956Z,12.46
2023-03-22T06:53:04.139Z,12.43
2023-03-22T06:54:06.224Z,12.51
2023-03-22T06:55:09.027Z,12.46
2023-03-22T06:56:11.404Z,12.36
2023-03-22T06:57:13.546Z,12.42
2023-03-22T06:58:15.698Z,12.31
2023-03-22T06:59:17.888Z,12.32
2023-03-22T07:00:20.807Z,12.37
2023-03-22T07:01:23.021Z,12.41
2023-03-22T07:02:25.228Z,12.40
2023-03-22T07:03:27.407Z,12.38
2023-03-22T07:04:29.640Z,12.21
2023-03-22T07:05:31.821Z,12.18
2023-03-22T07:06:34.077Z,12.24
2023-03-22T07:07:36.189Z,12.31
2023-03-22T07:08:38.540Z,12.37
2023-03-22T07:09:41.037Z,12.33
2023-03-22T07:10:43.833Z,12.40
2023-03-22T07:11:46.025Z,12.39
2023-03-22T07:12:48.105Z,12.41
2023-03-22T07:13:50.413Z,12.38
2023-03-22T07:14:52.583Z,12.44
2023-03-22T07:15:59.556Z,12.31
2023-03-22T07:17:01.798Z,12.01
2023-03-22T07:18:04.177Z,12.22
2023-03-22T07:19:06.985Z,12.31
2023-03-22T07:20:09.576Z,12.42
2023-03-22T07:21:11.710Z,12.42
2023-03-22T07:22:13.843Z,12.51
2023-03-22T07:23:16.636Z,12.52
2023-03-22T07:24:18.741Z,12.40
2023-03-22T07:25:21.013Z,12.39
2023-03-22T07:26:23.163Z,12.56
2023-03-22T07:27:25.905Z,12.58
2023-03-22T07:28:28.427Z,12.61
2023-03-22T07:29:30.673Z,12.75
2023-03-22T07:30:35.809Z,12.83
2023-03-22T07:31:38.292Z,13.02
2023-03-22T07:32:41.221Z,12.98
2023-03-22T07:33:43.405Z,13.10
2023-03-22T07:34:45.554Z,13.13
2023-03-22T07:35:47.746Z,13.19
2023-03-22T07:36:49.963Z,13.29
2023-03-22T07:37:52.809Z,13.39
2023-03-22T07:38:55.182Z,13.47
2023-03-22T07:39:57.338Z,13.56
2023-03-22T07:40:59.576Z,13.58
2023-03-22T07:42:01.739Z,13.58
2023-03-22T07:43:04.064Z,13.65
2023-03-22T07:44:17.410Z,13.61
2023-03-22T07:45:21.998Z,13.73
2023-03-22T07:46:24.214Z,13.81
2023-03-22T07:47:39.921Z,13.83
2023-03-22T07:48:42.843Z,13.95
2023-03-22T07:49:45.004Z,13.79
2023-03-22T07:50:47.748Z,13.96
2023-03-22T07:51:49.865Z,13.94
2023-03-22T07:52:51.971Z,13.87
2023-03-22T07:53:54.340Z,13.99
2023-03-22T07:54:56.477Z,13.94
2023-03-22T07:55:58.566Z,14.07
2023-03-22T07:57:01.318Z,14.11
2023-03-22T07:58:04.069Z,14.17
2023-03-22T07:59:06.450Z,14.34
2023-03-22T08:00:12.166Z,14.29
2023-03-22T08:01:14.485Z,14.22
2023-03-22T08:02:16.761Z,14.36
2023-03-22T08:03:19.104Z,14.47
2023-03-22T08:04:22.636Z,14.31
2023-03-22T08:05:25.234Z,14.48
2023-03-22T08:06:27.364Z,14.54
2023-03-22T08:07:30.314Z,14.30
2023-03-22T08:08:32.482Z,14.41
2023-03-22T08:09:34.592Z,14.59
2023-03-22T08:10:37.048Z,14.31
2023-03-22T08:11:39.227Z,14.30
2023-03-22T08:12:41.408Z,14.28
2023-03-22T08:13:43.567Z,14.41
2023-03-22T08:14:51.082Z,14.49
2023-03-22T08:15:53.365Z,14.61
2023-03-22T08:16:55.645Z,14.87
2023-03-22T08:17:58.153Z,15.02
2023-03-22T08:19:00.801Z,15.00
2023-03-22T08:20:07.644Z,14.98
2023-03-22T08:21:09.796Z,14.88
2023-03-22T08:22:12.061Z,14.85
2023-03-22T08:23:17.109Z,14.74
2023-03-22T08:24:19.338Z,14.97
2023-03-22T08:25:21.909Z,14.83
2023-03-22T08:26:24.211Z,14.85
2023-03-22T08:27:26.489Z,14.92
2023-03-22T08:28:28.656Z,15.05
2023-03-22T08:29:30.871Z,15.23
2023-03-22T08:30:32.976Z,15.03
2023-03-22T08:31:35.110Z,15.00
2023-03-22T08:32:37.284Z,15.04
2023-03-22T08:33:39.425Z,14.89
2023-03-22T08:34:42.601Z,14.79
2023-03-22T08:35:45.311Z,14.99
2023-03-22T08:36:47.541Z,15.13
2023-03-22T08:37:53.635Z,15.31
2023-03-22T08:38:56.160Z,15.33
2023-03-22T08:39:58.430Z,15.34
2023-03-22T08:41:00.717Z,15.41
2023-03-22T08:42:03.032Z,15.48
2023-03-22T08:43:05.383Z,15.15
2023-03-22T08:44:07.570Z,15.12
2023-03-22T08:45:10.590Z,15.09
2023-03-22T08:46:12.719Z,15.14
2023-03-22T08:47:14.875Z,15.24
2023-03-22T08:48:17.077Z,15.09
2023-03-22T08:49:19.274Z,15.07
2023-03-22T08:50:21.391Z,14.95
2023-03-22T08:51:25.325Z,14.77
2023-03-22T08:52:27.445Z,14.53
2023-03-22T08:53:29.649Z,14.46
2023-03-22T08:54:37.217Z,14.51
2023-03-22T08:55:40.138Z,14.50
2023-03-22T08:56:42.567Z,14.49
2023-03-22T08:57:44.858Z,14.41
2023-03-22T08:58:47.762Z,14.40
2023-03-22T08:59:52.264Z,14.30
2023-03-22T09:00:54.429Z,14.35
2023-03-22T09:01:56.877Z,14.35
2023-03-22T09:02:59.070Z,14.40
2023-03-22T09:04:01.644Z,14.37
2023-03-22T09:05:04.331Z,14.32
2023-03-22T09:06:06.823Z,14.37
2023-03-22T09:07:08.987Z,14.51
2023-03-22T09:08:18.507Z,14.57
2023-03-22T09:09:21.467Z,14.63
2023-03-22T09:10:23.864Z,14.90
2023-03-22T09:11:26.120Z,15.47
2023-03-22T09:12:29.744Z,15.88
2023-03-22T09:13:32.062Z,15.86
2023-03-22T09:14:34.172Z,15.83
2023-03-22T09:15:36.387Z,15.99
2023-03-22T09:16:38.585Z,16.03
2023-03-22T09:17:40.790Z,16.12
2023-03-22T09:18:43.120Z,16.25
2023-03-22T09:19:47.908Z,16.50
2023-03-22T09:20:50.436Z,16.05
2023-03-22T09:21:52.568Z,16.22
2023-03-22T09:22:54.686Z,16.36
2023-03-22T09:23:56.823Z,16.27
2023-03-22T09:24:58.954Z,16.08
2023-03-22T09:26:02.170Z,16.14
2023-03-22T09:27:04.622Z,16.25
2023-03-22T09:28:06.950Z,16.36
2023-03-22T09:29:10.665Z,16.29
2023-03-22T09:30:13.151Z,16.22
2023-03-22T09:31:17.453Z,16.15
2023-03-22T09:32:20.686Z,15.72
2023-03-22T09:34:42.953Z,15.72
2023-03-22T09:35:45.839Z,15.91
2023-03-22T09:36:48.249Z,15.99
2023-03-22T09:37:53.388Z,16.18
2023-03-22T09:38:56.459Z,16.39
2023-03-22T09:39:58.597Z,16.20
2023-03-22T09:41:03.688Z,16.49
2023-03-22T09:42:08.149Z,16.47
2023-03-22T09:43:12.507Z,16.40
2023-03-22T09:44:22.359Z,16.02
2023-03-22T09:45:38.207Z,16.16
2023-03-22T09:46:52.162Z,16.39
2023-03-22T09:47:55.383Z,16.32
2023-03-22T09:48:59.365Z,16.54
2023-03-22T09:50:09.113Z,16.55
2023-03-22T09:51:26.302Z,16.60
2023-03-22T09:52:29.660Z,16.49
2023-03-22T09:53:32.555Z,16.71
2023-03-22T09:54:36.444Z,16.74
2023-03-22T09:55:52.500Z,16.61
2023-03-22T09:56:57.938Z,16.38
2023-03-22T09:58:07.887Z,16.58
2023-03-22T09:59:14.787Z,16.64
2023-03-22T10:00:48.184Z,16.25
2023-03-22T10:02:01.416Z,16.18
2023-03-22T10:03:21.040Z,16.27
2023-03-22T10:04:26.425Z,16.08
2023-03-22T10:05:46.225Z,16.06
2023-03-22T10:06:51.295Z,16.07
2023-03-22T10:08:06.495Z,16.21
2023-03-22T10:09:34.368Z,16.23
2023-03-22T10:10:37.613Z,15.91
2023-03-22T10:11:46.231Z,15.66
2023-03-22T10:13:18.013Z,15.95
2023-03-22T10:14:31.982Z,15.87
2023-03-22T10:15:45.746Z,15.78
2023-03-22T10:16:48.784Z,15.69
2023-03-22T10:17:53.833Z,15.74
2023-03-22T10:19:03.639Z,15.73
2023-03-22T10:20:09.699Z,15.49
2023-03-22T10:21:13.291Z,15.46
2023-03-22T10:22:16.884Z,15.36
2023-03-22T10:23:26.283Z,15.14
2023-03-22T10:24:30.418Z,15.16
2023-03-22T10:25:40.527Z,15.25
2023-03-22T10:26:46.474Z,15.09
2023-03-22T10:27:50.230Z,14.94
2023-03-22T10:29:30.249Z,14.98
2023-03-22T10:30:36.561Z,14.88
2023-03-22T10:31:39.780Z,14.91
2023-03-22T10:33:01.618Z,14.89
2023-03-22T10:34:33.700Z,14.98
2023-03-22T10:35:36.364Z,15.07
2023-03-22T10:36:39.334Z,15.16
2023-03-22T10:37:45.175Z,15.28
2023-03-22T10:38:49.770Z,15.06
2023-03-22T10:39:54.658Z,14.97
2023-03-22T10:40:58.540Z,15.08
2023-03-22T10:42:03.527Z,15.03
2023-03-22T10:43:25.929Z,15.00
2023-03-22T10:44:30.786Z,15.01
2023-03-22T10:45:34.150Z,14.92
2023-03-22T10:46:39.054Z,14.90
2023-03-22T10:48:00.290Z,14.92
2023-03-22T10:49:04.051Z,14.93
2023-03-22T10:50:11.472Z,14.80
2023-03-22T10:51:35.812Z,14.81
2023-03-22T10:53:01.775Z,14.58
2023-03-22T10:54:05.689Z,14.58
2023-03-22T10:55:15.539Z,14.66
2023-03-22T10:56:20.104Z,14.71
2023-03-22T10:57:22.287Z,14.66
2023-03-22T10:58:31.128Z,14.71
2023-03-22T10:59:42.188Z,14.61
2023-03-22T11:00:52.084Z,14.60
2023-03-22T11:01:54.526Z,14.60
2023-03-22T11:03:00.134Z,14.64
2023-03-22T11:04:14.350Z,14.62
2023-03-22T11:05:28.409Z,14.61
2023-03-22T11:06:35.218Z,14.56
2023-03-22T11:07:40.038Z,14.52
2023-03-22T11:08:46.663Z,14.59
2023-03-22T11:09:48.890Z,14.59
2023-03-22T11:10:52.499Z,14.51
2023-03-22T11:11:57.143Z,14.44
2023-03-22T11:13:09.021Z,14.41
2023-03-22T11:14:16.564Z,14.32
2023-03-22T11:15:39.808Z,14.39
2023-03-22T11:17:00.310Z,14.42
2023-03-22T11:18:06.200Z,14.34
2023-03-22T11:19:15.004Z,14.38
2023-03-22T11:20:18.223Z,14.32
2023-03-22T11:21:24.478Z,14.31
2023-03-22T11:22:32.328Z,14.27
2023-03-22T11:23:36.144Z,14.30
2023-03-22T11:24:38.375Z,14.31
2023-03-22T11:25:46.689Z,14.31
2023-03-22T11:27:06.285Z,14.36
2023-03-22T11:28:17.434Z,14.23
2023-03-22T11:29:19.632Z,14.16
2023-03-22T11:30:23.427Z,14.20
2023-03-22T11:31:26.120Z,14.19
2023-03-22T11:32:38.910Z,14.28
2023-03-22T11:33:57.499Z,14.37
2023-03-22T11:35:02.770Z,14.36
2023-03-22T11:36:16.433Z,14.45
2023-03-22T11:37:22.140Z,14.34
2023-03-22T11:38:29.579Z,14.35
2023-03-22T11:39:31.830Z,14.37
2023-03-22T11:40:36.209Z,14.34
2023-03-22T11:41:40.369Z,14.36
2023-03-22T11:42:42.516Z,14.24
2023-03-22T11:43:48.518Z,14.29
2023-03-22T11:44:52.533Z,14.30
2023-03-22T11:45:57.006Z,14.37
2023-03-22T11:47:01.264Z,14.50
2023-03-22T11:48:10.014Z,14.57
2023-03-22T11:49:14.925Z,14.57
2023-03-22T11:50:29.956Z,14.64
2023-03-22T11:51:36.097Z,14.69
2023-03-22T11:52:38.235Z,14.75
2023-03-22T11:53:46.553Z,14.78
2023-03-22T11:54:49.324Z,14.72
2023-03-22T11:55:54.749Z,14.72
2023-03-22T11:56:59.939Z,14.85
2023-03-22T11:58:06.767Z,15.03
2023-03-22T11:59:25.009Z,15.15
2023-03-22T12:00:30.324Z,15.27
2023-03-22T12:01:51.522Z,15.26
2023-03-22T12:03:10.669Z,15.30
2023-03-22T12:04:20.213Z,15.28
2023-03-22T12:05:27.411Z,15.40
2023-03-22T12:06:33.261Z,15.65
2023-03-22T12:07:36.701Z,15.62
2023-03-22T12:08:42.811Z,15.79
2023-03-22T12:09:51.415Z,16.05
2023-03-22T12:11:06.612Z,16.11
2023-03-22T12:12:37.513Z,16.29
2023-03-22T12:13:46.871Z,16.39
2023-03-22T12:14:57.466Z,16.29
2023-03-22T12:16:03.522Z,16.48
2023-03-22T12:17:13.974Z,16.61
2023-03-22T12:18:29.797Z,16.75
2023-03-22T12:19:50.145Z,16.99
2023-03-22T12:20:55.591Z,17.03
2023-03-22T12:21:59.060Z,17.33
2023-03-22T12:23:02.263Z,17.55
2023-03-22T12:24:25.251Z,17.79
2023-03-22T12:25:32.245Z,17.84
2023-03-22T12:26:35.485Z,17.61
2023-03-22T12:27:41.210Z,17.78
2023-03-22T12:29:01.962Z,17.59
2023-03-22T12:30:08.069Z,17.69
2023-03-22T12:31:16.494Z,17.65
2023-03-22T12:32:24.339Z,17.48
2023-03-22T12:33:29.690Z,17.20
2023-03-22T12:34:44.317Z,17.08
2023-03-22T12:35:46.962Z,17.12
2023-03-22T12:36:55.193Z,17.21
2023-03-22T12:38:00.301Z,17.15
2023-03-22T12:39:03.789Z,17.29
2023-03-22T12:40:15.567Z,17.39
2023-03-22T12:41:36.947Z,17.24
2023-03-22T12:42:53.283Z,16.94
2023-03-22T12:44:06.114Z,17.01
2023-03-22T12:45:15.616Z,17.22
2023-03-22T12:46:21.687Z,17.24
2023-03-22T12:47:28.878Z,17.47
2023-03-22T12:48:46.372Z,17.61
2023-03-22T12:49:55.497Z,17.34
2023-03-22T12:51:00.874Z,17.45
2023-03-22T12:52:23.204Z,17.29
2023-03-22T12:53:28.700Z,17.39
2023-03-22T12:54:31.037Z,17.29
2023-03-22T12:55:38.457Z,17.25
2023-03-22T12:56:43.166Z,17.40
2023-03-22T12:57:51.218Z,17.27
2023-03-22T12:59:04.469Z,17.45
2023-03-22T13:00:13.706Z,17.26
2023-03-22T13:01:30.250Z,17.29
2023-03-22T13:02:34.388Z,17.39
2023-03-22T13:03:46.518Z,17.39
2023-03-22T13:04:57.261Z,17.33
2023-03-22T13:06:05.378Z,17.32
2023-03-22T13:07:13.645Z,17.20
2023-03-22T13:08:22.538Z,17.28
2023-03-22T13:09:42.795Z,17.26
2023-03-22T13:11:03.402Z,17.44
2023-03-22T13:12:17.498Z,17.80
2023-03-22T13:13:23.076Z,18.01
2023-03-22T13:14:51.360Z,18.36
2023-03-22T13:16:08.834Z,18.54
2023-03-22T13:17:10.993Z,18.47
2023-03-22T13:18:40.729Z,18.63
2023-03-22T13:19:52.124Z,18.83
2023-03-22T13:21:24.771Z,18.93
2023-03-22T13:22:49.835Z,19.21
2023-03-22T13:24:02.366Z,18.70
2023-03-22T13:25:12.503Z,19.31
2023-03-22T13:26:15.430Z,19.51
2023-03-22T13:27:17.549Z,20.06
2023-03-22T13:28:26.441Z,20.07
2023-03-22T13:29:39.191Z,19.80
2023-03-22T13:30:55.499Z,20.19
2023-03-22T13:31:59.685Z,20.29
2023-03-22T13:33:11.185Z,19.99
2023-03-22T13:34:20.265Z,19.83
2023-03-22T13:35:28.403Z,19.59
2023-03-22T13:36:32.106Z,19.68
2023-03-22T13:37:35.774Z,19.57
2023-03-22T13:38:42.216Z,19.24
2023-03-22T13:39:51.983Z,18.93
2023-03-22T13:41:06.552Z,18.78
2023-03-22T13:42:20.892Z,19.12
2023-03-22T13:43:34.561Z,19.45
2023-03-22T13:44:39.002Z,19.37
2023-03-22T13:46:32.219Z,19.50
2023-03-22T13:47:43.998Z,19.17
2023-03-22T13:48:49.736Z,19.07
2023-03-22T13:50:02.041Z,18.73
2023-03-22T13:51:22.397Z,18.76
2023-03-22T13:52:27.691Z,18.40
2023-03-22T13:53:30.974Z,18.35
2023-03-22T13:54:38.775Z,18.38
2023-03-22T13:55:42.724Z,18.44
2023-03-22T13:56:57.306Z,18.41
2023-03-22T13:58:00.161Z,18.31
2023-03-22T13:59:04.478Z,18.28
2023-03-22T14:00:30.294Z,18.39
2023-03-22T14:01:35.314Z,18.35
2023-03-22T14:02:41.806Z,18.48
2023-03-22T14:03:47.451Z,18.46
2023-03-22T14:05:03.983Z,18.63
2023-03-22T14:06:14.909Z,18.52
2023-03-22T14:07:20.827Z,18.63
2023-03-22T14:08:28.401Z,18.50
2023-03-22T14:09:33.588Z,18.56
2023-03-22T14:10:45.288Z,18.49
2023-03-22T14:11:54.319Z,18.51
2023-03-22T14:13:00.973Z,18.56
2023-03-22T14:14:07.155Z,18.64
2023-03-22T14:15:15.273Z,18.42
2023-03-22T14:16:40.881Z,18.55
2023-03-22T14:18:05.977Z,18.26
2023-03-22T14:19:24.157Z,18.30
2023-03-22T14:20:32.153Z,18.22
2023-03-22T14:21:43.743Z,18.02
